sensor_id;sensor_type;location;lat;lon;timestamp;temperature;humidity
64705;DHT22;51131;52.298;13.686;2023-04-24T00:01:44;18.80;65.30
64705;DHT22;51131;52.298;13.686;2023-04-24T00:04:10;18.80;65.80
64705;DHT22;51131;52.298;13.686;2023-04-24T00:06:37;19.30;66.40
64705;DHT22;51131;52.298;13.686;2023-04-24T00:09:05;18.80;65.70
64705;DHT22;51131;52.298;13.686;2023-04-24T00:11:31;18.80;66.30
64705;DHT22;51131;52.298;13.686;2023-04-24T00:13:58;19.10;66.00
64705;DHT22;51131;52.298;13.686;2023-04-24T00:16:24;18.80;65.90
64705;DHT22;51131;52.298;13.686;2023-04-24T00:18:51;19.00;66.50
64705;DHT22;51131;52.298;13.686;2023-04-24T00:21:19;18.90;65.70
64705;DHT22;51131;52.298;13.686;2023-04-24T00:23:46;18.80;65.50
64705;DHT22;51131;52.298;13.686;2023-04-24T00:26:12;18.80;65.80
64705;DHT22;51131;52.298;13.686;2023-04-24T00:28:39;18.90;65.50
64705;DHT22;51131;52.298;13.686;2023-04-24T00:31:05;18.80;65.60
64705;DHT22;51131;52.298;13.686;2023-04-24T00:33:32;19.20;65.90
64705;DHT22;51131;52.298;13.686;2023-04-24T00:35:59;18.80;65.40
64705;DHT22;51131;52.298;13.686;2023-04-24T00:38:25;18.80;65.40
64705;DHT22;51131;52.298;13.686;2023-04-24T00:40:52;18.80;65.20
64705;DHT22;51131;52.298;13.686;2023-04-24T00:43:20;18.80;65.20
64705;DHT22;51131;52.298;13.686;2023-04-24T00:45:47;18.80;65.90
64705;DHT22;51131;52.298;13.686;2023-04-24T00:48:13;18.80;66.20
64705;DHT22;51131;52.298;13.686;2023-04-24T00:50:40;18.80;65.90
64705;DHT22;51131;52.298;13.686;2023-04-24T00:53:08;19.00;65.50
64705;DHT22;51131;52.298;13.686;2023-04-24T00:55:34;18.90;65.30
64705;DHT22;51131;52.298;13.686;2023-04-24T00:58:03;19.10;65.20
64705;DHT22;51131;52.298;13.686;2023-04-24T01:00:30;19.00;65.10
64705;DHT22;51131;52.298;13.686;2023-04-24T01:02:57;19.00;64.90
64705;DHT22;51131;52.298;13.686;2023-04-24T01:05:25;19.00;64.90
64705;DHT22;51131;52.298;13.686;2023-04-24T01:07:52;19.10;64.90
64705;DHT22;51131;52.298;13.686;2023-04-24T01:10:19;19.10;65.00
64705;DHT22;51131;52.298;13.686;2023-04-24T01:12:46;19.20;65.10
64705;DHT22;51131;52.298;13.686;2023-04-24T01:15:13;19.00;65.00
64705;DHT22;51131;52.298;13.686;2023-04-24T01:17:40;19.00;64.90
64705;DHT22;51131;52.298;13.686;2023-04-24T01:20:06;19.00;65.20
64705;DHT22;51131;52.298;13.686;2023-04-24T01:22:33;19.00;65.20
64705;DHT22;51131;52.298;13.686;2023-04-24T01:25:00;19.00;65.20
64705;DHT22;51131;52.298;13.686;2023-04-24T01:27:27;19.00;65.20
64705;DHT22;51131;52.298;13.686;2023-04-24T01:29:54;19.50;66.00
64705;DHT22;51131;52.298;13.686;2023-04-24T01:32:20;18.90;65.50
64705;DHT22;51131;52.298;13.686;2023-04-24T01:34:47;18.90;65.40
64705;DHT22;51131;52.298;13.686;2023-04-24T01:37:14;18.90;65.20
64705;DHT22;51131;52.298;13.686;2023-04-24T01:39:42;18.80;65.30
64705;DHT22;51131;52.298;13.686;2023-04-24T01:42:09;18.90;65.20
64705;DHT22;51131;52.298;13.686;2023-04-24T01:44:36;18.80;65.60
64705;DHT22;51131;52.298;13.686;2023-04-24T01:47:03;18.80;65.20
64705;DHT22;51131;52.298;13.686;2023-04-24T01:49:30;18.90;65.20
64705;DHT22;51131;52.298;13.686;2023-04-24T01:51:56;18.90;65.30
64705;DHT22;51131;52.298;13.686;2023-04-24T01:54:23;19.00;65.20
64705;DHT22;51131;52.298;13.686;2023-04-24T01:56:49;19.50;65.90
64705;DHT22;51131;52.298;13.686;2023-04-24T01:59:16;19.10;65.30
64705;DHT22;51131;52.298;13.686;2023-04-24T02:01:43;18.80;65.40
64705;DHT22;51131;52.298;13.686;2023-04-24T02:04:09;18.90;65.20
64705;DHT22;51131;52.298;13.686;2023-04-24T02:06:36;19.00;65.50
64705;DHT22;51131;52.298;13.686;2023-04-24T02:09:03;18.80;65.40
64705;DHT22;51131;52.298;13.686;2023-04-24T02:11:30;18.80;65.30
64705;DHT22;51131;52.298;13.686;2023-04-24T02:13:57;18.80;65.40
64705;DHT22;51131;52.298;13.686;2023-04-24T02:16:23;18.80;65.10
64705;DHT22;51131;52.298;13.686;2023-04-24T02:18:50;18.80;65.10
64705;DHT22;51131;52.298;13.686;2023-04-24T02:21:17;19.50;67.00
64705;DHT22;51131;52.298;13.686;2023-04-24T02:23:43;18.80;65.80
64705;DHT22;51131;52.298;13.686;2023-04-24T02:26:10;19.30;65.90
64705;DHT22;51131;52.298;13.686;2023-04-24T02:28:37;18.80;65.30
64705;DHT22;51131;52.298;13.686;2023-04-24T02:31:03;18.80;65.00
64705;DHT22;51131;52.298;13.686;2023-04-24T02:33:30;18.80;65.10
64705;DHT22;51131;52.298;13.686;2023-04-24T02:35:56;18.80;65.60
64705;DHT22;51131;52.298;13.686;2023-04-24T02:38:23;18.90;65.60
64705;DHT22;51131;52.298;13.686;2023-04-24T02:40:50;18.80;65.30
64705;DHT22;51131;52.298;13.686;2023-04-24T02:43:16;18.80;65.20
64705;DHT22;51131;52.298;13.686;2023-04-24T02:45:43;19.10;65.60
64705;DHT22;51131;52.298;13.686;2023-04-24T02:48:09;19.20;65.80
64705;DHT22;51131;52.298;13.686;2023-04-24T02:50:36;19.10;65.70
64705;DHT22;51131;52.298;13.686;2023-04-24T02:53:03;18.70;65.40
64705;DHT22;51131;52.298;13.686;2023-04-24T02:55:29;18.80;65.80
64705;DHT22;51131;52.298;13.686;2023-04-24T02:57:56;18.80;65.90
64705;DHT22;51131;52.298;13.686;2023-04-24T03:00:23;18.80;66.00
64705;DHT22;51131;52.298;13.686;2023-04-24T03:02:49;18.80;65.60
64705;DHT22;51131;52.298;13.686;2023-04-24T03:05:17;18.90;65.50
64705;DHT22;51131;52.298;13.686;2023-04-24T03:07:43;19.00;65.20
64705;DHT22;51131;52.298;13.686;2023-04-24T03:10:11;19.00;65.10
64705;DHT22;51131;52.298;13.686;2023-04-24T03:12:38;19.10;65.10
64705;DHT22;51131;52.298;13.686;2023-04-24T03:15:05;19.30;65.30
64705;DHT22;51131;52.298;13.686;2023-04-24T03:17:32;19.20;65.40
64705;DHT22;51131;52.298;13.686;2023-04-24T03:19:59;19.10;65.20
64705;DHT22;51131;52.298;13.686;2023-04-24T03:22:25;19.30;65.40
64705;DHT22;51131;52.298;13.686;2023-04-24T03:24:52;19.10;65.20
64705;DHT22;51131;52.298;13.686;2023-04-24T03:27:19;19.10;65.00
64705;DHT22;51131;52.298;13.686;2023-04-24T03:29:45;19.10;65.90
64705;DHT22;51131;52.298;13.686;2023-04-24T03:32:12;19.10;65.10
64705;DHT22;51131;52.298;13.686;2023-04-24T03:34:38;19.00;65.10
64705;DHT22;51131;52.298;13.686;2023-04-24T03:37:05;19.10;65.20
64705;DHT22;51131;52.298;13.686;2023-04-24T03:39:32;19.00;65.20
64705;DHT22;51131;52.298;13.686;2023-04-24T03:41:58;19.00;65.30
64705;DHT22;51131;52.298;13.686;2023-04-24T03:44:25;19.30;65.70
64705;DHT22;51131;52.298;13.686;2023-04-24T03:46:51;19.00;65.20
64705;DHT22;51131;52.298;13.686;2023-04-24T03:49:18;19.00;66.20
64705;DHT22;51131;52.298;13.686;2023-04-24T03:51:45;18.90;65.50
64705;DHT22;51131;52.298;13.686;2023-04-24T03:54:11;18.90;65.50
64705;DHT22;51131;52.298;13.686;2023-04-24T03:56:38;18.90;65.60
64705;DHT22;51131;52.298;13.686;2023-04-24T03:59:05;18.90;65.40
64705;DHT22;51131;52.298;13.686;2023-04-24T04:01:32;18.90;65.60
64705;DHT22;51131;52.298;13.686;2023-04-24T04:03:58;19.00;65.50
64705;DHT22;51131;52.298;13.686;2023-04-24T04:06:25;18.90;65.50
64705;DHT22;51131;52.298;13.686;2023-04-24T04:08:53;18.90;65.60
64705;DHT22;51131;52.298;13.686;2023-04-24T04:11:19;19.00;65.50
64705;DHT22;51131;52.298;13.686;2023-04-24T04:13:46;19.00;65.50
64705;DHT22;51131;52.298;13.686;2023-04-24T04:16:14;18.90;65.40
64705;DHT22;51131;52.298;13.686;2023-04-24T04:18:43;18.90;65.40
64705;DHT22;51131;52.298;13.686;2023-04-24T04:21:10;19.50;66.20
64705;DHT22;51131;52.298;13.686;2023-04-24T04:23:36;18.90;65.70
64705;DHT22;51131;52.298;13.686;2023-04-24T04:26:03;18.90;65.60
64705;DHT22;51131;52.298;13.686;2023-04-24T04:28:30;18.90;65.70
64705;DHT22;51131;52.298;13.686;2023-04-24T04:30:59;19.50;66.50
64705;DHT22;51131;52.298;13.686;2023-04-24T04:33:26;19.00;66.80
64705;DHT22;51131;52.298;13.686;2023-04-24T04:35:52;18.90;66.00
64705;DHT22;51131;52.298;13.686;2023-04-24T04:38:19;19.00;65.90
64705;DHT22;51131;52.298;13.686;2023-04-24T04:40:47;18.90;65.80
64705;DHT22;51131;52.298;13.686;2023-04-24T04:43:13;18.90;65.40
64705;DHT22;51131;52.298;13.686;2023-04-24T04:45:41;18.90;65.30
64705;DHT22;51131;52.298;13.686;2023-04-24T04:48:09;19.30;65.80
64705;DHT22;51131;52.298;13.686;2023-04-24T04:50:39;18.90;65.20
64705;DHT22;51131;52.298;13.686;2023-04-24T04:53:05;18.90;65.20
64705;DHT22;51131;52.298;13.686;2023-04-24T04:55:33;18.90;65.10
64705;DHT22;51131;52.298;13.686;2023-04-24T04:58:00;18.90;65.30
64705;DHT22;51131;52.298;13.686;2023-04-24T05:00:27;19.30;65.50
64705;DHT22;51131;52.298;13.686;2023-04-24T05:02:55;19.20;65.50
64705;DHT22;51131;52.298;13.686;2023-04-24T05:05:34;19.00;65.40
64705;DHT22;51131;52.298;13.686;2023-04-24T05:08:01;19.10;65.50
64705;DHT22;51131;52.298;13.686;2023-04-24T05:10:29;19.70;65.80
64705;DHT22;51131;52.298;13.686;2023-04-24T05:12:57;19.20;65.40
64705;DHT22;51131;52.298;13.686;2023-04-24T05:15:23;19.50;65.20
64705;DHT22;51131;52.298;13.686;2023-04-24T05:17:50;19.20;64.70
64705;DHT22;51131;52.298;13.686;2023-04-24T05:20:16;19.20;64.90
64705;DHT22;51131;52.298;13.686;2023-04-24T05:22:44;19.40;65.20
64705;DHT22;51131;52.298;13.686;2023-04-24T05:25:10;19.10;64.90
64705;DHT22;51131;52.298;13.686;2023-04-24T05:27:38;19.10;65.00
64705;DHT22;51131;52.298;13.686;2023-04-24T05:30:05;19.10;65.00
64705;DHT22;51131;52.298;13.686;2023-04-24T05:32:32;19.10;65.10
64705;DHT22;51131;52.298;13.686;2023-04-24T05:34:59;19.30;65.30
64705;DHT22;51131;52.298;13.686;2023-04-24T05:37:26;19.40;65.40
64705;DHT22;51131;52.298;13.686;2023-04-24T05:39:52;19.00;65.10
64705;DHT22;51131;52.298;13.686;2023-04-24T05:42:19;19.00;65.10
64705;DHT22;51131;52.298;13.686;2023-04-24T05:44:46;19.80;66.10
64705;DHT22;51131;52.298;13.686;2023-04-24T05:47:12;19.00;65.10
64705;DHT22;51131;52.298;13.686;2023-04-24T05:49:39;19.70;65.80
64705;DHT22;51131;52.298;13.686;2023-04-24T05:52:06;19.30;65.30
64705;DHT22;51131;52.298;13.686;2023-04-24T05:54:35;19.50;65.60
64705;DHT22;51131;52.298;13.686;2023-04-24T05:57:02;19.00;65.10
64705;DHT22;51131;52.298;13.686;2023-04-24T05:59:35;19.00;65.10
64705;DHT22;51131;52.298;13.686;2023-04-24T06:02:01;19.70;66.00
64705;DHT22;51131;52.298;13.686;2023-04-24T06:04:28;19.00;65.40
64705;DHT22;51131;52.298;13.686;2023-04-24T06:06:55;19.00;65.30
64705;DHT22;51131;52.298;13.686;2023-04-24T06:09:22;19.00;65.30
64705;DHT22;51131;52.298;13.686;2023-04-24T06:11:49;19.00;65.40
64705;DHT22;51131;52.298;13.686;2023-04-24T06:14:16;19.00;65.40
64705;DHT22;51131;52.298;13.686;2023-04-24T06:16:43;19.50;65.80
64705;DHT22;51131;52.298;13.686;2023-04-24T06:19:10;19.00;65.30
64705;DHT22;51131;52.298;13.686;2023-04-24T06:21:36;19.00;65.30
64705;DHT22;51131;52.298;13.686;2023-04-24T06:24:03;19.00;65.00
64705;DHT22;51131;52.298;13.686;2023-04-24T06:26:30;19.40;65.50
64705;DHT22;51131;52.298;13.686;2023-04-24T06:28:57;19.00;65.00
64705;DHT22;51131;52.298;13.686;2023-04-24T06:31:25;19.00;65.20
64705;DHT22;51131;52.298;13.686;2023-04-24T06:33:52;19.40;65.60
64705;DHT22;51131;52.298;13.686;2023-04-24T06:36:18;19.00;65.20
64705;DHT22;51131;52.298;13.686;2023-04-24T06:38:45;19.60;65.80
64705;DHT22;51131;52.298;13.686;2023-04-24T06:41:12;19.00;65.20
64705;DHT22;51131;52.298;13.686;2023-04-24T06:43:39;19.10;65.10
64705;DHT22;51131;52.298;13.686;2023-04-24T06:46:06;19.20;65.00
64705;DHT22;51131;52.298;13.686;2023-04-24T06:48:33;19.30;64.70
64705;DHT22;51131;52.298;13.686;2023-04-24T06:51:00;19.30;64.70
64705;DHT22;51131;52.298;13.686;2023-04-24T06:53:26;19.40;64.70
64705;DHT22;51131;52.298;13.686;2023-04-24T06:55:53;19.90;65.30
64705;DHT22;51131;52.298;13.686;2023-04-24T06:58:21;19.40;64.80
64705;DHT22;51131;52.298;13.686;2023-04-24T07:00:48;19.40;64.40
64705;DHT22;51131;52.298;13.686;2023-04-24T07:03:15;19.50;64.50
64705;DHT22;51131;52.298;13.686;2023-04-24T07:05:42;19.60;64.90
64705;DHT22;51131;52.298;13.686;2023-04-24T07:08:10;19.40;64.30
64705;DHT22;51131;52.298;13.686;2023-04-24T07:10:37;19.10;64.10
64705;DHT22;51131;52.298;13.686;2023-04-24T07:13:04;19.30;64.30
64705;DHT22;51131;52.298;13.686;2023-04-24T07:15:31;19.30;65.00
64705;DHT22;51131;52.298;13.686;2023-04-24T07:17:58;19.30;64.40
64705;DHT22;51131;52.298;13.686;2023-04-24T07:20:25;19.10;64.30
64705;DHT22;51131;52.298;13.686;2023-04-24T07:22:52;19.20;64.50
64705;DHT22;51131;52.298;13.686;2023-04-24T07:25:20;19.20;64.50
64705;DHT22;51131;52.298;13.686;2023-04-24T07:27:47;19.40;64.80
64705;DHT22;51131;52.298;13.686;2023-04-24T07:30:15;19.20;64.50
64705;DHT22;51131;52.298;13.686;2023-04-24T07:32:41;19.50;64.90
64705;DHT22;51131;52.298;13.686;2023-04-24T07:35:08;19.10;64.60
64705;DHT22;51131;52.298;13.686;2023-04-24T07:37:36;19.10;64.90
64705;DHT22;51131;52.298;13.686;2023-04-24T07:40:02;19.10;64.80
64705;DHT22;51131;52.298;13.686;2023-04-24T07:42:30;19.10;65.00
64705;DHT22;51131;52.298;13.686;2023-04-24T07:45:01;19.10;65.10
64705;DHT22;51131;52.298;13.686;2023-04-24T07:47:27;19.10;65.30
64705;DHT22;51131;52.298;13.686;2023-04-24T07:49:54;19.10;65.10
64705;DHT22;51131;52.298;13.686;2023-04-24T07:52:24;19.10;64.80
64705;DHT22;51131;52.298;13.686;2023-04-24T07:54:50;19.50;65.20
64705;DHT22;51131;52.298;13.686;2023-04-24T07:57:19;19.10;64.70
64705;DHT22;51131;52.298;13.686;2023-04-24T07:59:45;19.20;64.70
64705;DHT22;51131;52.298;13.686;2023-04-24T08:02:12;19.10;64.90
64705;DHT22;51131;52.298;13.686;2023-04-24T08:04:38;19.40;65.20
64705;DHT22;51131;52.298;13.686;2023-04-24T08:07:05;19.10;64.10
64705;DHT22;51131;52.298;13.686;2023-04-24T08:09:32;19.30;64.60
64705;DHT22;51131;52.298;13.686;2023-04-24T08:11:59;19.40;64.80
64705;DHT22;51131;52.298;13.686;2023-04-24T08:14:26;19.10;64.50
64705;DHT22;51131;52.298;13.686;2023-04-24T08:16:54;19.10;64.60
64705;DHT22;51131;52.298;13.686;2023-04-24T08:19:22;19.40;65.10
64705;DHT22;51131;52.298;13.686;2023-04-24T08:21:48;19.20;65.10
64705;DHT22;51131;52.298;13.686;2023-04-24T08:24:15;19.10;64.80
64705;DHT22;51131;52.298;13.686;2023-04-24T08:26:42;19.00;64.10
64705;DHT22;51131;52.298;13.686;2023-04-24T08:29:09;19.20;63.60
64705;DHT22;51131;52.298;13.686;2023-04-24T08:31:35;19.00;63.30
64705;DHT22;51131;52.298;13.686;2023-04-24T08:34:02;19.20;63.10
64705;DHT22;51131;52.298;13.686;2023-04-24T08:36:29;19.10;64.10
64705;DHT22;51131;52.298;13.686;2023-04-24T08:39:11;19.10;64.10
64705;DHT22;51131;52.298;13.686;2023-04-24T08:41:38;19.10;64.50
64705;DHT22;51131;52.298;13.686;2023-04-24T08:44:09;19.20;64.10
64705;DHT22;51131;52.298;13.686;2023-04-24T08:46:36;19.10;64.30
64705;DHT22;51131;52.298;13.686;2023-04-24T08:49:03;19.00;64.10
64705;DHT22;51131;52.298;13.686;2023-04-24T08:51:31;19.20;63.50
64705;DHT22;51131;52.298;13.686;2023-04-24T08:53:57;19.40;63.90
64705;DHT22;51131;52.298;13.686;2023-04-24T08:56:26;19.20;63.60
64705;DHT22;51131;52.298;13.686;2023-04-24T08:58:54;19.20;64.30
64705;DHT22;51131;52.298;13.686;2023-04-24T09:01:22;19.00;63.30
64705;DHT22;51131;52.298;13.686;2023-04-24T09:03:52;19.20;63.50
64705;DHT22;51131;52.298;13.686;2023-04-24T09:06:20;19.10;62.10
64705;DHT22;51131;52.298;13.686;2023-04-24T09:08:48;19.40;62.30
64705;DHT22;51131;52.298;13.686;2023-04-24T09:11:17;19.20;63.40
64705;DHT22;51131;52.298;13.686;2023-04-24T09:13:44;19.30;63.80
64705;DHT22;51131;52.298;13.686;2023-04-24T09:16:11;19.40;63.70
64705;DHT22;51131;52.298;13.686;2023-04-24T09:18:38;19.40;63.70
64705;DHT22;51131;52.298;13.686;2023-04-24T09:21:08;19.40;63.70
64705;DHT22;51131;52.298;13.686;2023-04-24T09:23:34;19.50;63.70
64705;DHT22;51131;52.298;13.686;2023-04-24T09:26:02;19.50;63.70
64705;DHT22;51131;52.298;13.686;2023-04-24T09:28:32;19.60;63.70
64705;DHT22;51131;52.298;13.686;2023-04-24T09:31:06;20.10;64.20
64705;DHT22;51131;52.298;13.686;2023-04-24T09:33:33;19.50;63.70
64705;DHT22;51131;52.298;13.686;2023-04-24T09:36:00;19.40;63.70
64705;DHT22;51131;52.298;13.686;2023-04-24T09:38:38;19.50;63.80
64705;DHT22;51131;52.298;13.686;2023-04-24T09:41:05;19.40;63.80
64705;DHT22;51131;52.298;13.686;2023-04-24T09:43:33;19.40;64.00
64705;DHT22;51131;52.298;13.686;2023-04-24T09:46:03;19.30;63.80
64705;DHT22;51131;52.298;13.686;2023-04-24T09:48:31;19.80;64.30
64705;DHT22;51131;52.298;13.686;2023-04-24T09:50:58;19.60;64.10
64705;DHT22;51131;52.298;13.686;2023-04-24T09:53:25;19.30;63.40
64705;DHT22;51131;52.298;13.686;2023-04-24T09:55:53;19.30;63.30
64705;DHT22;51131;52.298;13.686;2023-04-24T09:58:29;19.30;63.50
64705;DHT22;51131;52.298;13.686;2023-04-24T10:00:55;19.30;63.50
64705;DHT22;51131;52.298;13.686;2023-04-24T10:03:26;19.30;63.50
64705;DHT22;51131;52.298;13.686;2023-04-24T10:05:59;19.30;63.50
64705;DHT22;51131;52.298;13.686;2023-04-24T10:08:26;19.20;63.50
64705;DHT22;51131;52.298;13.686;2023-04-24T10:10:59;19.20;63.60
64705;DHT22;51131;52.298;13.686;2023-04-24T10:13:26;19.20;63.60
64705;DHT22;51131;52.298;13.686;2023-04-24T10:15:53;19.20;63.50
64705;DHT22;51131;52.298;13.686;2023-04-24T10:18:20;19.20;63.80
64705;DHT22;51131;52.298;13.686;2023-04-24T10:20:47;19.20;63.90
64705;DHT22;51131;52.298;13.686;2023-04-24T10:23:15;19.30;63.90
64705;DHT22;51131;52.298;13.686;2023-04-24T10:25:43;19.30;63.80
64705;DHT22;51131;52.298;13.686;2023-04-24T10:28:09;19.30;63.90
64705;DHT22;51131;52.298;13.686;2023-04-24T10:30:36;19.20;63.90
64705;DHT22;51131;52.298;13.686;2023-04-24T10:33:04;19.30;63.90
64705;DHT22;51131;52.298;13.686;2023-04-24T10:35:31;19.20;63.90
64705;DHT22;51131;52.298;13.686;2023-04-24T10:38:18;19.40;64.50
64705;DHT22;51131;52.298;13.686;2023-04-24T10:40:48;19.20;64.30
64705;DHT22;51131;52.298;13.686;2023-04-24T10:43:16;19.20;64.00
64705;DHT22;51131;52.298;13.686;2023-04-24T10:45:43;19.40;64.10
64705;DHT22;51131;52.298;13.686;2023-04-24T10:48:26;19.20;64.20
64705;DHT22;51131;52.298;13.686;2023-04-24T10:50:53;19.20;64.40
64705;DHT22;51131;52.298;13.686;2023-04-24T10:53:21;19.30;64.50
64705;DHT22;51131;52.298;13.686;2023-04-24T10:55:50;19.20;63.80
64705;DHT22;51131;52.298;13.686;2023-04-24T10:58:23;19.30;63.90
64705;DHT22;51131;52.298;13.686;2023-04-24T11:00:57;19.20;63.70
64705;DHT22;51131;52.298;13.686;2023-04-24T11:03:25;19.20;63.90
64705;DHT22;51131;52.298;13.686;2023-04-24T11:05:56;19.10;64.10
64705;DHT22;51131;52.298;13.686;2023-04-24T11:08:24;19.20;63.50
64705;DHT22;51131;52.298;13.686;2023-04-24T11:10:56;19.10;62.90
64705;DHT22;51131;52.298;13.686;2023-04-24T11:13:25;19.20;62.20
64705;DHT22;51131;52.298;13.686;2023-04-24T11:18:38;19.30;63.50
64705;DHT22;51131;52.298;13.686;2023-04-24T11:21:12;19.40;63.60
64705;DHT22;51131;52.298;13.686;2023-04-24T11:23:39;19.40;63.10
64705;DHT22;51131;52.298;13.686;2023-04-24T11:26:17;19.40;61.80
64705;DHT22;51131;52.298;13.686;2023-04-24T11:28:45;19.40;62.50
64705;DHT22;51131;52.298;13.686;2023-04-24T11:34:05;19.40;62.80
64705;DHT22;51131;52.298;13.686;2023-04-24T11:36:31;19.40;62.10
64705;DHT22;51131;52.298;13.686;2023-04-24T11:38:58;19.40;62.50
64705;DHT22;51131;52.298;13.686;2023-04-24T11:41:25;19.40;62.70
64705;DHT22;51131;52.298;13.686;2023-04-24T11:43:52;19.40;62.90
64705;DHT22;51131;52.298;13.686;2023-04-24T11:46:20;19.30;62.40
64705;DHT22;51131;52.298;13.686;2023-04-24T11:48:47;19.30;62.30
64705;DHT22;51131;52.298;13.686;2023-04-24T11:51:14;19.30;62.30
64705;DHT22;51131;52.298;13.686;2023-04-24T11:53:40;19.20;62.50
64705;DHT22;51131;52.298;13.686;2023-04-24T11:56:08;19.20;62.30
64705;DHT22;51131;52.298;13.686;2023-04-24T11:58:36;19.20;62.30
64705;DHT22;51131;52.298;13.686;2023-04-24T12:01:03;19.20;62.40
64705;DHT22;51131;52.298;13.686;2023-04-24T12:03:30;19.20;62.50
64705;DHT22;51131;52.298;13.686;2023-04-24T12:06:10;19.20;62.60
64705;DHT22;51131;52.298;13.686;2023-04-24T12:08:37;19.20;62.60
64705;DHT22;51131;52.298;13.686;2023-04-24T12:11:05;19.20;62.70
64705;DHT22;51131;52.298;13.686;2023-04-24T12:13:33;19.10;63.00
64705;DHT22;51131;52.298;13.686;2023-04-24T12:16:03;19.20;62.90
64705;DHT22;51131;52.298;13.686;2023-04-24T12:18:31;19.20;62.50
64705;DHT22;51131;52.298;13.686;2023-04-24T12:21:14;19.50;62.50
64705;DHT22;51131;52.298;13.686;2023-04-24T12:23:42;19.20;62.20
64705;DHT22;51131;52.298;13.686;2023-04-24T12:26:09;19.20;62.10
64705;DHT22;51131;52.298;13.686;2023-04-24T12:28:36;19.20;62.00
64705;DHT22;51131;52.298;13.686;2023-04-24T12:31:03;19.20;62.10
64705;DHT22;51131;52.298;13.686;2023-04-24T12:33:33;19.30;62.10
64705;DHT22;51131;52.298;13.686;2023-04-24T12:36:00;19.20;61.90
64705;DHT22;51131;52.298;13.686;2023-04-24T12:38:29;19.30;61.60
64705;DHT22;51131;52.298;13.686;2023-04-24T12:41:03;19.20;62.30
64705;DHT22;51131;52.298;13.686;2023-04-24T12:43:30;19.20;62.10
64705;DHT22;51131;52.298;13.686;2023-04-24T12:45:57;19.20;62.70
64705;DHT22;51131;52.298;13.686;2023-04-24T12:48:25;19.20;63.10
64705;DHT22;51131;52.298;13.686;2023-04-24T12:50:52;19.20;62.80
64705;DHT22;51131;52.298;13.686;2023-04-24T12:53:19;19.20;62.40
64705;DHT22;51131;52.298;13.686;2023-04-24T12:55:46;19.20;61.90
64705;DHT22;51131;52.298;13.686;2023-04-24T12:58:19;19.30;61.50
64705;DHT22;51131;52.298;13.686;2023-04-24T13:00:46;19.20;60.90
64705;DHT22;51131;52.298;13.686;2023-04-24T13:03:13;19.20;61.40
64705;DHT22;51131;52.298;13.686;2023-04-24T13:05:41;19.20;61.00
64705;DHT22;51131;52.298;13.686;2023-04-24T13:08:08;19.20;61.00
64705;DHT22;51131;52.298;13.686;2023-04-24T13:10:35;19.20;60.10
64705;DHT22;51131;52.298;13.686;2023-04-24T13:13:01;19.20;60.30
64705;DHT22;51131;52.298;13.686;2023-04-24T13:15:29;19.20;60.10
64705;DHT22;51131;52.298;13.686;2023-04-24T13:17:55;19.30;60.20
64705;DHT22;51131;52.298;13.686;2023-04-24T13:20:22;19.60;61.90
64705;DHT22;51131;52.298;13.686;2023-04-24T13:22:49;19.40;60.90
64705;DHT22;51131;52.298;13.686;2023-04-24T13:25:16;19.40;61.60
64705;DHT22;51131;52.298;13.686;2023-04-24T13:27:44;19.50;60.20
64705;DHT22;51131;52.298;13.686;2023-04-24T13:30:11;19.50;60.70
64705;DHT22;51131;52.298;13.686;2023-04-24T13:32:37;19.60;60.60
64705;DHT22;51131;52.298;13.686;2023-04-24T13:35:04;19.60;60.80
64705;DHT22;51131;52.298;13.686;2023-04-24T13:37:31;19.60;60.40
64705;DHT22;51131;52.298;13.686;2023-04-24T13:39:58;19.50;60.70
64705;DHT22;51131;52.298;13.686;2023-04-24T13:42:24;19.60;60.80
64705;DHT22;51131;52.298;13.686;2023-04-24T13:44:51;19.60;61.40
64705;DHT22;51131;52.298;13.686;2023-04-24T13:47:18;19.50;61.40
64705;DHT22;51131;52.298;13.686;2023-04-24T13:49:44;19.50;61.10
64705;DHT22;51131;52.298;13.686;2023-04-24T13:52:11;19.40;60.70
64705;DHT22;51131;52.298;13.686;2023-04-24T13:54:38;19.40;60.40
64705;DHT22;51131;52.298;13.686;2023-04-24T13:57:04;19.40;60.30
64705;DHT22;51131;52.298;13.686;2023-04-24T13:59:31;19.40;60.60
64705;DHT22;51131;52.298;13.686;2023-04-24T14:01:58;19.40;60.70
64705;DHT22;51131;52.298;13.686;2023-04-24T14:04:24;19.40;60.90
64705;DHT22;51131;52.298;13.686;2023-04-24T14:06:52;19.40;60.90
64705;DHT22;51131;52.298;13.686;2023-04-24T14:09:18;19.40;60.40
64705;DHT22;51131;52.298;13.686;2023-04-24T14:11:45;19.40;61.00
64705;DHT22;51131;52.298;13.686;2023-04-24T14:14:11;19.40;60.90
64705;DHT22;51131;52.298;13.686;2023-04-24T14:16:38;19.40;61.40
64705;DHT22;51131;52.298;13.686;2023-04-24T14:19:05;19.40;61.10
64705;DHT22;51131;52.298;13.686;2023-04-24T14:21:32;19.40;61.40
64705;DHT22;51131;52.298;13.686;2023-04-24T14:23:59;19.20;60.70
64705;DHT22;51131;52.298;13.686;2023-04-24T14:26:26;19.30;60.80
64705;DHT22;51131;52.298;13.686;2023-04-24T14:28:52;19.40;60.60
64705;DHT22;51131;52.298;13.686;2023-04-24T14:31:32;19.40;60.40
64705;DHT22;51131;52.298;13.686;2023-04-24T14:33:59;19.30;60.60
64705;DHT22;51131;52.298;13.686;2023-04-24T14:36:26;19.30;60.90
64705;DHT22;51131;52.298;13.686;2023-04-24T14:38:53;19.30;60.00
64705;DHT22;51131;52.298;13.686;2023-04-24T14:41:19;19.40;59.50
64705;DHT22;51131;52.298;13.686;2023-04-24T14:43:46;19.30;58.80
64705;DHT22;51131;52.298;13.686;2023-04-24T14:46:13;19.40;59.90
64705;DHT22;51131;52.298;13.686;2023-04-24T14:48:40;19.30;60.00
64705;DHT22;51131;52.298;13.686;2023-04-24T14:51:06;19.30;59.60
64705;DHT22;51131;52.298;13.686;2023-04-24T14:53:33;19.30;59.60
64705;DHT22;51131;52.298;13.686;2023-04-24T14:56:00;19.30;60.10
64705;DHT22;51131;52.298;13.686;2023-04-24T14:58:26;19.30;60.20
64705;DHT22;51131;52.298;13.686;2023-04-24T15:00:53;19.30;60.70
64705;DHT22;51131;52.298;13.686;2023-04-24T15:03:20;19.30;60.80
64705;DHT22;51131;52.298;13.686;2023-04-24T15:05:48;19.20;60.20
64705;DHT22;51131;52.298;13.686;2023-04-24T15:08:15;19.30;61.20
64705;DHT22;51131;52.298;13.686;2023-04-24T15:10:42;19.30;60.20
64705;DHT22;51131;52.298;13.686;2023-04-24T15:13:09;19.30;60.10
64705;DHT22;51131;52.298;13.686;2023-04-24T15:15:36;19.30;59.80
64705;DHT22;51131;52.298;13.686;2023-04-24T15:18:04;19.30;60.40
64705;DHT22;51131;52.298;13.686;2023-04-24T15:20:31;19.40;60.10
64705;DHT22;51131;52.298;13.686;2023-04-24T15:22:58;19.30;59.90